Time;durP1;ratioP1;P1;durP2;ratioP2;P2;SDS_P1;SDS_P2;PMS_P1;PMS_P2;Temp;Humidity;BMP_temperature;BMP_pressure;BME280_temperature;BME280_humidity;BME280_pressure;Samples;Min_cycle;Max_cycle;Signal;HPM_P1;HPM_P2
2022/11/15 00:01:00;;;;;;;;;;;10.30;99.90;;;;;;5052441;28;20077;-63
2022/11/15 00:03:27;;;;;;;18.58;7.93;;;10.30;99.90;;;;;;5062484;28;19920;-63
2022/11/15 00:05:53;;;;;;;22.77;8.18;;;10.30;99.90;;;;;;5056724;28;20080;-64
2022/11/15 00:08:19;;;;;;;;;;;10.30;99.90;;;;;;5058097;28;20064;-64
2022/11/15 00:10:58;;;;;;;14.88;6.82;;;10.30;99.90;;;;;;5056191;28;20306;-64
2022/11/15 00:13:24;;;;;;;13.32;6.90;;;10.40;99.90;;;;;;5054801;28;20338;-64
2022/11/15 00:15:49;;;;;;;;;;;10.30;99.90;;;;;;5053006;28;20713;-63
2022/11/15 00:18:15;;;;;;;14.50;8.38;;;10.40;99.90;;;;;;5048895;28;20011;-64
2022/11/15 00:20:41;;;;;;;17.23;8.10;;;10.40;99.90;;;;;;5038719;28;20088;-64
2022/11/15 00:23:07;;;;;;;;;;;10.40;99.90;;;;;;5035963;28;20496;-64
2022/11/15 00:25:33;;;;;;;13.27;7.60;;;10.30;99.90;;;;;;5036973;28;20019;-64
2022/11/15 00:27:59;;;;;;;;;;;10.30;99.90;;;;;;5044397;28;20048;-64
2022/11/15 00:30:25;;;;;;;16.25;8.13;;;10.30;99.90;;;;;;5044265;28;19974;-64
2022/11/15 00:32:51;;;;;;;13.82;8.20;;;10.40;99.90;;;;;;5045472;28;20495;-63
2022/11/15 00:35:17;;;;;;;;;;;10.30;99.90;;;;;;5047213;28;20125;-63
2022/11/15 00:37:43;;;;;;;14.15;8.77;;;10.30;99.90;;;;;;5051035;28;19952;-63
2022/11/15 00:40:09;;;;;;;;;;;10.30;99.90;;;;;;5043696;28;20129;-63
2022/11/15 00:42:35;;;;;;;17.20;8.45;;;10.40;99.90;;;;;;5041501;28;20015;-63
2022/11/15 00:45:01;;;;;;;;;;;10.40;99.90;;;;;;5037915;28;20135;-63
2022/11/15 00:47:26;;;;;;;13.00;8.10;;;10.40;99.90;;;;;;5047408;28;19921;-63
2022/11/15 00:49:52;;;;;;;;;;;10.40;99.90;;;;;;5044164;28;20457;-63
2022/11/15 00:52:17;;;;;;;15.38;8.75;;;10.50;99.90;;;;;;5066358;28;19944;-63
2022/11/15 00:54:43;;;;;;;;;;;10.50;99.90;;;;;;5033500;28;20124;-63
2022/11/15 00:57:08;;;;;;;19.98;10.88;;;10.50;99.90;;;;;;5043664;28;19940;-63
2022/11/15 00:59:34;;;;;;;;;;;10.50;99.90;;;;;;5048146;28;20112;-63
2022/11/15 01:02:00;;;;;;;22.98;12.00;;;10.40;99.90;;;;;;5042522;28;20330;-63
2022/11/15 01:04:26;;;;;;;19.35;11.13;;;10.30;99.90;;;;;;5048300;28;20048;-63
2022/11/15 01:06:52;;;;;;;;;;;10.20;99.90;;;;;;5036907;28;20041;-63
2022/11/15 01:09:18;;;;;;;22.15;11.65;;;10.10;99.90;;;;;;5043016;28;19917;-63
2022/11/15 01:11:43;;;;;;;;;;;10.00;99.90;;;;;;5043935;28;20049;-63
2022/11/15 01:14:09;;;;;;;21.23;12.85;;;10.00;99.90;;;;;;5042062;28;19927;-63
2022/11/15 01:16:34;;;;;;;;;;;9.90;99.90;;;;;;5038580;28;20098;-63
2022/11/15 01:19:00;;;;;;;23.52;14.55;;;9.80;99.90;;;;;;5043103;28;20019;-63
2022/11/15 01:21:26;;;;;;;;;;;9.70;99.90;;;;;;5037315;28;20496;-63
2022/11/15 01:23:55;;;;;;;22.58;13.77;;;9.60;99.90;;;;;;5046492;28;19920;-63
2022/11/15 01:26:22;;;;;;;24.73;13.38;;;9.60;99.90;;;;;;5037415;28;20045;-63
2022/11/15 01:28:48;;;;;;;20.55;11.38;;;9.60;99.90;;;;;;5034586;28;20041;-62
2022/11/15 01:31:15;;;;;;;;;;;9.60;99.90;;;;;;5039482;28;20413;-63
2022/11/15 01:33:40;;;;;;;16.38;11.18;;;9.60;99.90;;;;;;5047196;28;19921;-63
2022/11/15 01:36:07;;;;;;;;;;;9.60;99.90;;;;;;5042549;28;20060;-63
2022/11/15 01:38:33;;;;;;;25.67;14.15;;;9.60;99.90;;;;;;5068893;28;19955;-62
2022/11/15 01:40:59;;;;;;;22.25;12.57;;;9.50;99.90;;;;;;5039852;28;20068;-63
2022/11/15 01:43:35;;;;;;;;;;;9.50;99.90;;;;;;5047621;28;20505;-63
2022/11/15 01:46:35;;;;;;;21.58;12.52;;;9.50;99.90;;;;;;5034762;28;20304;-63
2022/11/15 01:49:10;;;;;;;20.73;11.73;;;9.50;99.90;;;;;;5043360;28;20045;-63
2022/11/15 01:51:36;;;;;;;19.75;11.35;;;9.50;99.90;;;;;;5037972;28;20040;-63
2022/11/15 01:54:07;;;;;;;;;;;9.60;99.90;;;;;;5042883;28;20037;-62
2022/11/15 01:56:40;;;;;;;15.68;11.13;;;9.70;99.90;;;;;;5037168;28;19934;-63
2022/11/15 01:59:08;;;;;;;17.77;10.88;;;9.60;99.90;;;;;;5036774;28;20037;-63
2022/11/15 02:01:34;;;;;;;18.15;10.98;;;9.70;99.90;;;;;;5037854;28;20060;-63
2022/11/15 02:04:33;;;;;;;19.67;11.18;;;9.70;99.90;;;;;;5046293;28;20039;-63
2022/11/15 02:07:04;;;;;;;19.38;11.20;;;9.80;99.90;;;;;;5037659;28;20037;-63
2022/11/15 02:09:30;;;;;;;16.52;11.02;;;9.70;99.90;;;;;;5035874;28;20127;-63
2022/11/15 02:11:57;;;;;;;22.73;11.15;;;9.70;99.90;;;;;;5043368;28;20116;-63
2022/11/15 02:14:25;;;;;;;22.70;10.82;;;9.70;99.90;;;;;;5039041;28;20045;-63
2022/11/15 02:17:35;;;;;;;16.27;11.18;;;9.70;99.90;;;;;;5039712;28;20404;-63
2022/11/15 02:20:28;;;;;;;15.85;9.95;;;9.70;99.90;;;;;;5023178;28;20182;-62
2022/11/15 02:23:21;;;;;;;16.98;10.75;;;9.70;99.90;;;;;;5041940;28;20048;-62
2022/11/15 02:26:08;;;;;;;22.30;13.20;;;9.70;99.90;;;;;;5043558;28;20038;-63
2022/11/15 02:29:08;;;;;;;21.00;14.15;;;9.70;99.90;;;;;;5043814;28;20048;-63
2022/11/15 02:31:55;;;;;;;23.30;12.80;;;9.50;99.90;;;;;;5038831;28;20041;-62
2022/11/15 02:35:00;;;;;;;18.83;11.10;;;9.50;99.90;;;;;;5038639;28;20517;-62
2022/11/15 02:37:31;;;;;;;16.50;11.40;;;9.50;99.90;;;;;;5035925;28;20052;-63
2022/11/15 02:40:16;;;;;;;17.52;11.68;;;9.50;99.90;;;;;;5037924;28;20033;-63
2022/11/15 02:45:44;;;;;;;17.05;9.93;;;9.60;99.90;;;;;;5041354;28;20140;-63
2022/11/15 02:48:12;;;;;;;16.05;9.25;;;9.60;99.90;;;;;;5039653;28;20140;-63
2022/11/15 02:50:37;;;;;;;12.60;7.85;;;9.60;99.90;;;;;;5034453;28;20063;-62
2022/11/15 02:53:03;;;;;;;;;;;9.70;99.90;;;;;;5045970;28;20040;-62
2022/11/15 02:55:29;;;;;;;10.60;7.32;;;9.80;99.90;;;;;;5044406;28;19921;-63
2022/11/15 02:58:01;;;;;;;;;;;9.80;99.90;;;;;;5042650;28;20033;-62
2022/11/15 03:00:35;;;;;;;11.75;5.80;;;9.90;99.90;;;;;;5041687;28;19917;-63
2022/11/15 03:03:28;;;;;;;9.25;6.22;;;9.90;99.90;;;;;;5043866;28;20037;-62
2022/11/15 03:06:05;;;;;;;11.38;5.90;;;9.90;99.90;;;;;;5029841;28;20050;-63
2022/11/15 03:08:55;;;;;;;15.57;7.60;;;10.00;99.90;;;;;;5042713;28;20040;-62
2022/11/15 03:11:22;;;;;;;10.57;6.18;;;10.00;99.90;;;;;;5033130;28;20116;-63
2022/11/15 03:14:12;;;;;;;7.85;4.75;;;10.00;99.90;;;;;;5037185;28;20129;-62
2022/11/15 03:16:45;;;;;;;9.48;5.93;;;10.00;99.90;;;;;;5036428;28;20071;-63
2022/11/15 03:19:31;;;;;;;9.10;6.22;;;10.10;99.90;;;;;;5031091;28;20049;-63
2022/11/15 03:22:01;;;;;;;12.82;9.15;;;10.10;99.90;;;;;;5041668;28;20036;-63
2022/11/15 03:24:30;;;;;;;17.88;10.02;;;10.00;99.90;;;;;;5041519;28;20116;-63
2022/11/15 03:26:59;;;;;;;14.38;10.02;;;9.80;99.90;;;;;;5046949;28;20055;-62
2022/11/15 03:29:31;;;;;;;12.10;7.80;;;9.70;99.90;;;;;;5043829;28;20638;-62
2022/11/15 03:32:28;;;;;;;14.25;7.28;;;9.70;99.90;;;;;;5040592;28;20094;-63
2022/11/15 03:34:58;;;;;;;9.68;6.22;;;9.60;99.90;;;;;;5033484;28;20419;-63
2022/11/15 03:37:38;;;;;;;11.05;7.20;;;9.70;99.90;;;;;;5039836;28;20444;-62
2022/11/15 03:40:04;;;;;;;10.07;7.80;;;9.70;99.90;;;;;;5033267;28;20037;-63
2022/11/15 03:42:38;;;;;;;11.77;6.82;;;9.70;99.90;;;;;;5045346;28;20033;-63
2022/11/15 03:45:22;;;;;;;15.02;7.03;;;9.70;99.90;;;;;;5033349;28;20051;-63
2022/11/15 03:48:07;;;;;;;14.30;7.55;;;9.80;99.90;;;;;;5039490;28;20083;-63
2022/11/15 03:50:34;;;;;;;14.07;8.23;;;9.80;99.90;;;;;;5036413;28;20045;-63
2022/11/15 03:53:00;;;;;;;10.98;6.70;;;9.80;99.90;;;;;;5044633;28;20040;-63
2022/11/15 03:55:26;;;;;;;13.07;6.63;;;9.80;99.90;;;;;;5039887;28;20511;-63
2022/11/15 03:57:53;;;;;;;;;;;9.90;99.90;;;;;;5028664;28;20040;-63
2022/11/15 04:00:19;;;;;;;12.32;6.85;;;9.90;99.90;;;;;;5038828;28;19925;-62
2022/11/15 04:02:45;;;;;;;;;;;9.90;99.90;;;;;;5047473;28;20427;-62
2022/11/15 04:05:10;;;;;;;12.82;8.32;;;9.90;99.90;;;;;;5051629;28;20539;-63
2022/11/15 04:07:36;;;;;;;;;;;9.90;99.90;;;;;;5035639;28;20041;-63
2022/11/15 04:10:02;;;;;;;10.85;7.75;;;9.90;99.90;;;;;;5043337;28;19932;-62
2022/11/15 04:12:35;;;;;;;;;;;9.90;99.90;;;;;;5048671;28;20053;-62
2022/11/15 04:15:07;;;;;;;17.70;10.18;;;9.90;99.90;;;;;;5046557;28;19925;-63
2022/11/15 04:17:54;;;;;;;14.65;9.60;;;9.90;99.90;;;;;;5048984;28;20037;-61
2022/11/15 04:26:12;;;;;;;16.65;9.88;;;9.80;99.90;;;;;;5042119;28;20052;-63
2022/11/15 04:29:33;;;;;;;16.60;10.00;;;9.90;99.90;;;;;;5047553;28;20045;-63
2022/11/15 04:31:24;;;;;;;18.70;11.27;;;9.90;99.90;;;;;;5036133;28;20091;-62
2022/11/15 04:33:49;;;;;;;;;;;9.80;99.90;;;;;;5045782;28;20133;-62
2022/11/15 04:38:59;;;;;;;15.00;9.55;;;9.80;99.90;;;;;;5046917;28;20040;-62
2022/11/15 04:41:25;;;;;;;;;;;9.80;99.90;;;;;;5046970;28;20664;-62
2022/11/15 04:43:50;;;;;;;16.02;8.35;;;9.80;99.90;;;;;;5042810;28;20551;-62
2022/11/15 04:46:16;;;;;;;;;;;9.80;99.90;;;;;;5045903;28;20051;-62
2022/11/15 04:48:42;;;;;;;12.52;8.75;;;9.80;99.90;;;;;;5045374;28;19917;-62
2022/11/15 04:51:07;;;;;;;;;;;9.80;99.90;;;;;;5031164;28;20458;-62
2022/11/15 04:53:33;;;;;;;14.25;8.38;;;9.80;99.90;;;;;;5049182;28;19917;-61
2022/11/15 04:55:58;;;;;;;;;;;9.80;99.90;;;;;;5049071;28;20489;-62
2022/11/15 04:58:24;;;;;;;9.90;6.72;;;9.80;99.90;;;;;;5046537;28;19921;-62
2022/11/15 05:00:49;;;;;;;12.18;7.85;;;9.90;99.90;;;;;;5043789;28;20053;-62
2022/11/15 05:05:59;;;;;;;12.60;5.97;;;9.90;99.90;;;;;;5041761;28;19921;-63
2022/11/15 05:08:25;;;;;;;;;;;9.90;99.90;;;;;;5047893;28;20641;-63
2022/11/15 05:10:51;;;;;;;9.15;5.68;;;9.90;99.90;;;;;;5041580;28;19917;-63
2022/11/15 05:13:16;;;;;;;;;;;9.90;99.90;;;;;;5042034;28;20044;-63
2022/11/15 05:15:42;;;;;;;10.07;6.50;;;9.90;99.90;;;;;;5044454;28;20451;-63
2022/11/15 05:18:08;;;;;;;;;;;9.90;99.90;;;;;;5047659;28;20044;-63
2022/11/15 05:20:33;;;;;;;10.07;6.07;;;9.90;99.90;;;;;;5045110;28;20420;-63
2022/11/15 05:22:59;;;;;;;;;;;9.90;99.90;;;;;;5047025;28;20041;-63
2022/11/15 05:25:25;;;;;;;11.00;5.68;;;9.90;99.90;;;;;;5045127;28;19925;-62
2022/11/15 05:27:51;;;;;;;;;;;9.90;99.90;;;;;;5030226;28;20109;-63
2022/11/15 05:30:17;;;;;;;10.60;5.30;;;9.90;99.90;;;;;;5035019;28;19928;-63
2022/11/15 05:32:43;;;;;;;7.35;5.18;;;9.90;99.90;;;;;;5045554;28;20047;-63
2022/11/15 05:35:15;;;;;;;8.02;5.15;;;9.90;99.90;;;;;;5045206;28;20053;-63
2022/11/15 05:37:41;;;;;;;9.70;5.88;;;9.90;99.90;;;;;;5041082;28;20045;-63
2022/11/15 05:40:07;;;;;;;;;;;9.90;99.90;;;;;;5037512;28;20041;-63
2022/11/15 05:42:33;;;;;;;6.53;4.88;;;9.90;99.90;;;;;;5041246;28;19924;-63
2022/11/15 05:44:59;;;;;;;;;;;9.90;99.90;;;;;;5038436;28;20103;-62
2022/11/15 05:47:28;;;;;;;9.02;4.68;;;10.00;99.90;;;;;;5046000;28;19946;-63
2022/11/15 05:49:55;;;;;;;7.43;4.22;;;10.00;99.90;;;;;;5044954;28;20049;-63
2022/11/15 05:52:25;;;;;;;5.45;3.83;;;9.90;99.90;;;;;;5046398;28;20060;-63
2022/11/15 05:54:52;;;;;;;6.55;4.25;;;9.90;99.90;;;;;;5048221;28;20071;-62
2022/11/15 05:57:18;;;;;;;5.15;3.78;;;9.90;99.90;;;;;;5040684;28;20045;-63
2022/11/15 05:59:44;;;;;;;;;;;10.00;99.90;;;;;;5045575;28;20040;-61
2022/11/15 06:02:10;;;;;;;6.05;4.15;;;10.00;99.90;;;;;;5033479;28;19921;-63
2022/11/15 06:04:36;;;;;;;7.28;3.75;;;10.00;99.90;;;;;;5029966;28;20050;-63
2022/11/15 06:07:02;;;;;;;;;;;10.00;99.90;;;;;;5034900;28;20049;-63
2022/11/15 06:09:27;;;;;;;10.57;3.85;;;10.00;99.90;;;;;;5034909;28;19923;-62
2022/11/15 06:11:53;;;;;;;;;;;10.00;99.90;;;;;;5060597;28;20134;-63
2022/11/15 06:14:19;;;;;;;6.68;4.35;;;10.00;99.90;;;;;;5039059;28;20010;-63
2022/11/15 06:16:44;;;;;;;;;;;10.00;99.90;;;;;;5033364;28;20401;-63
2022/11/15 06:19:10;;;;;;;6.22;4.35;;;9.90;99.90;;;;;;5040587;28;19917;-61
2022/11/15 06:21:35;;;;;;;;;;;10.00;99.90;;;;;;5045966;28;20110;-63
2022/11/15 06:24:01;;;;;;;5.95;4.30;;;10.00;99.90;;;;;;5048401;28;19917;-62
2022/11/15 06:26:27;;;;;;;;;;;10.00;99.90;;;;;;5038470;28;20042;-64
2022/11/15 06:28:52;;;;;;;7.80;4.20;;;9.90;99.90;;;;;;5032513;28;19928;-64
2022/11/15 06:31:18;;;;;;;;;;;10.00;99.90;;;;;;5035971;28;20072;-64
2022/11/15 06:33:43;;;;;;;6.65;4.40;;;10.00;99.90;;;;;;5046280;28;19917;-63
2022/11/15 06:36:10;;;;;;;;;;;10.00;99.90;;;;;;5043800;28;20392;-63
2022/11/15 06:38:36;;;;;;;6.90;3.72;;;10.00;99.90;;;;;;5038987;28;19917;-64
2022/11/15 06:41:02;;;;;;;;;;;10.00;99.90;;;;;;5044261;28;20045;-64
2022/11/15 06:43:28;;;;;;;6.60;4.22;;;10.00;99.90;;;;;;5042955;28;20376;-67
2022/11/15 06:45:54;;;;;;;;;;;10.00;99.90;;;;;;5040944;28;20044;-63
2022/11/15 06:48:20;;;;;;;8.45;3.90;;;10.00;99.90;;;;;;5011884;28;20022;-64
2022/11/15 06:50:56;;;;;;;;;;;10.00;99.90;;;;;;5043003;28;20076;-63
2022/11/15 06:53:22;;;;;;;5.78;3.72;;;10.00;99.90;;;;;;5039153;28;19921;-62
2022/11/15 06:55:48;;;;;;;5.88;3.90;;;10.00;99.90;;;;;;5045555;28;20044;-62
2022/11/15 06:58:14;;;;;;;;;;;10.00;99.90;;;;;;5038101;28;20392;-62
2022/11/15 07:00:40;;;;;;;4.55;3.10;;;10.00;99.90;;;;;;5041847;28;19965;-64
2022/11/15 07:03:06;;;;;;;;;;;10.10;99.90;;;;;;5041987;28;20069;-63
2022/11/15 07:05:32;;;;;;;3.05;2.13;;;10.10;99.90;;;;;;5026788;28;19920;-62
2022/11/15 07:07:59;;;;;;;5.93;3.60;;;10.10;99.90;;;;;;5036702;28;20048;-61
2022/11/15 07:10:25;;;;;;;6.75;3.20;;;10.00;99.90;;;;;;5034561;28;20043;-62
2022/11/15 07:12:52;;;;;;;5.53;3.22;;;10.00;99.90;;;;;;5036304;28;20037;-62
2022/11/15 07:15:18;;;;;;;4.15;2.90;;;10.00;99.90;;;;;;5035641;28;20123;-63
2022/11/15 07:17:44;;;;;;;3.85;2.70;;;10.00;99.90;;;;;;5039916;28;20132;-62
2022/11/15 07:20:11;;;;;;;;;;;10.00;99.90;;;;;;5039754;28;20139;-62
2022/11/15 07:22:36;;;;;;;4.50;2.40;;;10.00;99.90;;;;;;5032591;28;19992;-62
2022/11/15 07:25:02;;;;;;;;;;;10.00;99.90;;;;;;5035686;28;20041;-62
2022/11/15 07:27:27;;;;;;;3.25;2.05;;;10.00;99.90;;;;;;5029873;28;20293;-63
2022/11/15 07:29:53;;;;;;;;;;;10.00;99.90;;;;;;5037768;28;20067;-62
2022/11/15 07:32:19;;;;;;;13.50;2.00;;;10.10;99.90;;;;;;5033723;28;19971;-62
2022/11/15 07:34:45;;;;;;;;;;;10.10;99.90;;;;;;5044392;28;20036;-62
2022/11/15 07:37:11;;;;;;;3.80;2.15;;;10.10;99.90;;;;;;5038166;28;19963;-63
2022/11/15 07:39:37;;;;;;;3.47;1.85;;;10.10;99.90;;;;;;5045268;28;20041;-65
2022/11/15 07:44:48;;;;;;;5.75;1.73;;;10.10;99.90;;;;;;5032798;28;20291;-62
2022/11/15 07:47:13;;;;;;;;;;;10.00;99.90;;;;;;5045218;28;20047;-61
2022/11/15 07:49:39;;;;;;;3.25;1.83;;;10.00;99.90;;;;;;5042083;28;19964;-62
2022/11/15 07:52:05;;;;;;;;;;;10.00;99.90;;;;;;5033706;28;20084;-62
2022/11/15 07:54:30;;;;;;;1.98;1.40;;;10.00;99.90;;;;;;5038835;28;19921;-62
2022/11/15 07:56:56;;;;;;;;;;;10.00;99.90;;;;;;5041919;28;20047;-63
2022/11/15 07:59:22;;;;;;;4.55;1.73;;;10.00;99.90;;;;;;5047855;28;19920;-61
2022/11/15 08:01:47;;;;;;;3.58;1.90;;;10.00;99.90;;;;;;5040893;28;20049;-63
2022/11/15 08:04:13;;;;;;;;;;;10.00;99.90;;;;;;5044261;28;20063;-62
2022/11/15 08:06:38;;;;;;;2.92;1.80;;;10.00;99.90;;;;;;5033843;28;19921;-63
2022/11/15 08:09:04;;;;;;;;;;;10.00;99.90;;;;;;5041476;28;20037;-62
2022/11/15 08:11:30;;;;;;;4.00;1.88;;;10.00;99.90;;;;;;5049097;28;19916;-62
2022/11/15 08:13:56;;;;;;;;;;;10.00;99.90;;;;;;5036569;28;20045;-62
2022/11/15 08:16:21;;;;;;;4.88;2.72;;;10.00;99.90;;;;;;5076641;28;19925;-63
2022/11/15 08:18:47;;;;;;;;;;;10.00;99.90;;;;;;5042845;28;20556;-63
2022/11/15 08:21:17;;;;;;;4.22;2.67;;;10.10;99.90;;;;;;5043955;28;19917;-63
2022/11/15 08:23:43;;;;;;;6.10;2.60;;;10.20;99.90;;;;;;5044844;28;20461;-62
2022/11/15 08:26:09;;;;;;;;;;;10.20;99.90;;;;;;5043495;28;20037;-61
2022/11/15 08:28:34;;;;;;;8.27;2.83;;;10.30;99.90;;;;;;5042139;28;20368;-62
2022/11/15 08:31:00;;;;;;;;;;;10.40;99.90;;;;;;5037655;28;20049;-62
2022/11/15 08:33:27;;;;;;;5.60;2.17;;;10.40;99.90;;;;;;5040979;28;19923;-61
2022/11/15 08:35:59;;;;;;;3.88;1.98;;;10.50;99.90;;;;;;5043112;28;20049;-61
2022/11/15 08:38:25;;;;;;;4.78;2.20;;;10.50;99.90;;;;;;5041952;28;20122;-62
2022/11/15 08:40:51;;;;;;;;;;;10.50;99.90;;;;;;5042926;28;20041;-61
2022/11/15 08:43:17;;;;;;;3.60;1.95;;;10.50;99.90;;;;;;5031323;28;19920;-62
2022/11/15 08:45:43;;;;;;;;;;;10.60;99.90;;;;;;5039867;28;20046;-63
2022/11/15 08:48:08;;;;;;;4.13;2.47;;;10.60;99.90;;;;;;5043163;28;20630;-62
2022/11/15 08:50:34;;;;;;;;;;;10.70;99.90;;;;;;5031811;22;20046;-62
2022/11/15 08:53:08;;;;;;;4.20;2.15;;;10.70;99.90;;;;;;4990256;28;19948;-61
2022/11/15 08:55:37;;;;;;;3.83;2.30;;;10.80;99.90;;;;;;4989841;28;20453;-62
2022/11/15 08:58:03;;;;;;;5.03;2.35;;;10.80;99.90;;;;;;4983750;28;20046;-62
2022/11/15 09:00:28;;;;;;;;;;;10.80;99.90;;;;;;4986428;28;20041;-63
2022/11/15 09:02:54;;;;;;;10.57;2.20;;;10.80;99.90;;;;;;4978735;28;19941;-62
2022/11/15 09:05:22;;;;;;;;;;;10.80;99.90;;;;;;4979752;28;20038;-62
2022/11/15 09:07:53;;;;;;;4.22;2.30;;;10.80;99.90;;;;;;4978849;28;19992;-63
2022/11/15 09:10:19;;;;;;;4.03;2.05;;;10.80;99.90;;;;;;4975987;28;20515;-63
2022/11/15 09:12:48;;;;;;;;;;;10.80;99.90;;;;;;4981119;28;20538;-61
2022/11/15 09:15:14;;;;;;;3.97;2.10;;;10.80;99.90;;;;;;4979182;28;19921;-63
2022/11/15 09:17:40;;;;;;;4.18;1.95;;;10.80;99.90;;;;;;4985581;28;20049;-63
2022/11/15 09:20:05;;;;;;;;;;;10.80;99.90;;;;;;4979827;28;20042;-63
2022/11/15 09:22:31;;;;;;;3.75;1.80;;;10.90;99.90;;;;;;4988377;28;19928;-62
2022/11/15 09:24:57;;;;;;;;;;;10.90;99.90;;;;;;4984412;28;20077;-62
2022/11/15 09:27:26;;;;;;;5.32;2.05;;;11.00;99.90;;;;;;4987123;28;19925;-62
2022/11/15 09:29:52;;;;;;;2.97;2.13;;;11.00;99.90;;;;;;4980945;28;20518;-62
2022/11/15 09:32:18;;;;;;;;;;;11.00;99.90;;;;;;4977804;28;20045;-63
2022/11/15 09:34:43;;;;;;;2.83;1.98;;;11.10;99.90;;;;;;4975515;28;19922;-63
2022/11/15 09:37:09;;;;;;;;;;;11.10;99.90;;;;;;4978509;28;20057;-63
2022/11/15 09:39:35;;;;;;;3.17;2.05;;;11.10;99.90;;;;;;4969288;28;19933;-63
2022/11/15 09:42:08;;;;;;;;;;;11.10;99.90;;;;;;4984907;28;20039;-62
2022/11/15 09:44:59;;;;;;;6.05;1.90;;;11.20;99.90;;;;;;4974068;28;19979;-62
2022/11/15 09:47:27;;;;;;;2.28;1.60;;;11.20;99.90;;;;;;4983877;28;20105;-63
2022/11/15 09:50:00;;;;;;;3.70;2.15;;;11.40;99.90;;;;;;4974743;28;20051;-63
2022/11/15 09:52:27;;;;;;;2.67;2.00;;;11.60;99.90;;;;;;4988301;28;20077;-63
2022/11/15 09:54:53;;;;;;;4.00;2.10;;;11.70;99.90;;;;;;4986278;28;20046;-63
2022/11/15 09:57:34;;;;;;;;;;;11.70;99.90;;;;;;4986085;28;20069;-63
2022/11/15 09:59:59;;;;;;;6.88;1.90;;;11.80;99.90;;;;;;4978173;28;19965;-63
2022/11/15 10:02:43;;;;;;;;;;;11.70;99.90;;;;;;4986110;28;20453;-62
2022/11/15 10:05:19;;;;;;;4.35;2.03;;;11.80;99.90;;;;;;4980310;28;20008;-63
2022/11/15 10:08:09;;;;;;;1.95;1.45;;;11.80;99.90;;;;;;4974869;28;20126;-59
2022/11/15 10:10:41;;;;;;;5.60;2.00;;;11.80;99.90;;;;;;4972470;28;20442;-63
2022/11/15 10:13:23;;;;;;;3.92;2.05;;;11.90;99.90;;;;;;4977198;28;20054;-63
2022/11/15 10:15:51;;;;;;;4.00;1.60;;;12.00;99.90;;;;;;4980084;28;20857;-64
2022/11/15 10:18:28;;;;;;;2.75;1.60;;;12.00;99.90;;;;;;4982616;28;20526;-64
2022/11/15 10:21:12;;;;;;;2.75;1.63;;;12.20;99.90;;;;;;4977957;28;20511;-63
2022/11/15 10:23:38;;;;;;;3.88;1.70;;;12.20;99.90;;;;;;4980143;28;20510;-63
2022/11/15 10:26:07;;;;;;;;;;;12.20;99.90;;;;;;4976547;28;20138;-63
2022/11/15 10:28:33;;;;;;;3.53;1.75;;;12.20;99.90;;;;;;4980595;28;19925;-63
2022/11/15 10:31:00;;;;;;;;;;;12.10;99.90;;;;;;4984319;28;20084;-63
2022/11/15 10:33:29;;;;;;;3.25;1.65;;;11.90;99.90;;;;;;4986248;28;19922;-64
2022/11/15 10:36:25;;;;;;;2.05;1.65;;;11.80;99.90;;;;;;4982473;28;20049;-64
2022/11/15 10:38:51;;;;;;;2.60;1.52;;;11.70;99.90;;;;;;4986985;28;20073;-64
2022/11/15 10:41:31;;;;;;;;;;;11.70;99.90;;;;;;4981245;28;20042;-63
2022/11/15 10:44:31;;;;;;;2.67;1.58;;;11.80;99.90;;;;;;4983420;28;19983;-61
2022/11/15 10:46:59;;;;;;;2.17;1.70;;;11.70;99.90;;;;;;4985014;28;20056;-63
2022/11/15 10:49:30;;;;;;;3.75;1.70;;;11.80;99.90;;;;;;4978830;28;20046;-63
2022/11/15 10:52:04;;;;;;;6.25;1.90;;;11.80;99.90;;;;;;4986998;28;20045;-63
2022/11/15 10:54:40;;;;;;;4.47;1.50;;;11.80;99.90;;;;;;4983437;28;20455;-63
2022/11/15 10:57:16;;;;;;;6.63;1.77;;;11.90;99.90;;;;;;4985775;28;20053;-63
2022/11/15 10:59:48;;;;;;;4.60;1.80;;;12.00;99.90;;;;;;4976636;28;20050;-64
2022/11/15 11:02:33;;;;;;;4.13;1.85;;;12.00;99.90;;;;;;4984173;28;20050;-62
2022/11/15 11:05:00;;;;;;;4.07;2.15;;;12.00;99.90;;;;;;4984260;28;20042;-62
2022/11/15 11:07:30;;;;;;;3.63;1.80;;;12.00;99.90;;;;;;4983013;28;20046;-62
2022/11/15 11:10:17;;;;;;;4.55;1.95;;;12.00;99.90;;;;;;4971710;28;20116;-63
2022/11/15 11:12:42;;;;;;;3.63;1.50;;;12.00;99.90;;;;;;4978859;28;20120;-63
2022/11/15 11:15:12;;;;;;;;;;;12.10;99.90;;;;;;4983947;28;20322;-63
2022/11/15 11:18:08;;;;;;;2.55;1.95;;;12.10;99.90;;;;;;4972196;28;19922;-63
2022/11/15 11:20:41;;;;;;;3.75;1.65;;;12.10;99.90;;;;;;4979752;28;20518;-63
2022/11/15 11:23:12;;;;;;;2.53;1.60;;;12.10;99.90;;;;;;4984655;28;20047;-63
2022/11/15 11:25:44;;;;;;;4.43;1.90;;;12.10;99.90;;;;;;4981217;28;20089;-63
2022/11/15 11:28:32;;;;;;;4.45;2.10;;;12.10;99.90;;;;;;4982150;28;20104;-64
2022/11/15 11:31:07;;;;;;;30.65;4.22;;;12.10;99.90;;;;;;4980965;28;20053;-63
2022/11/15 11:33:49;;;;;;;22.50;4.18;;;12.10;99.90;;;;;;4979465;28;20105;-63
2022/11/15 11:36:33;;;;;;;18.58;4.63;;;12.10;99.90;;;;;;4975396;28;20073;-64
2022/11/15 11:39:26;;;;;;;31.50;4.38;;;12.10;99.90;;;;;;4979191;28;20505;-63
2022/11/15 11:42:04;;;;;;;7.05;3.67;;;12.10;99.90;;;;;;4985005;28;20101;-64
2022/11/15 11:45:04;;;;;;;5.53;3.58;;;12.00;99.90;;;;;;4978109;28;20496;-62
2022/11/15 11:47:40;;;;;;;7.75;4.03;;;11.90;99.90;;;;;;4971901;28;20058;-63
2022/11/15 11:50:19;;;;;;;6.45;4.05;;;11.90;99.90;;;;;;4977124;28;20509;-63
2022/11/15 11:53:05;;;;;;;7.05;3.90;;;12.10;99.90;;;;;;4982128;28;20039;-63
2022/11/15 11:55:55;;;;;;;8.68;3.92;;;12.00;99.90;;;;;;4977882;28;20043;-64
2022/11/15 11:58:36;;;;;;;7.10;3.33;;;12.20;99.90;;;;;;4984329;28;20125;-63
2022/11/15 12:01:17;;;;;;;6.88;3.78;;;12.30;99.90;;;;;;4983383;28;20046;-63
2022/11/15 12:04:01;;;;;;;5.10;3.42;;;12.30;99.90;;;;;;4978396;28;20399;-63
2022/11/15 12:06:45;;;;;;;6.85;4.20;;;12.40;99.90;;;;;;4980261;28;20042;-64
2022/11/15 12:09:31;;;;;;;5.20;3.67;;;12.40;99.90;;;;;;4971696;28;20039;-63
2022/11/15 12:12:08;;;;;;;14.07;3.90;;;12.30;99.90;;;;;;4976434;28;20050;-63
2022/11/15 12:14:44;;;;;;;5.70;3.45;;;12.30;99.90;;;;;;4981769;28;20499;-63
2022/11/15 12:17:11;;;;;;;9.75;3.90;;;12.20;99.90;;;;;;4986934;28;20057;-63
2022/11/15 12:19:38;;;;;;;6.53;3.05;;;12.20;99.90;;;;;;4977832;28;20034;-63
2022/11/15 12:22:19;;;;;;;7.45;3.90;;;12.30;99.90;;;;;;4985174;28;20046;-63
2022/11/15 12:24:58;;;;;;;5.55;3.35;;;12.30;99.90;;;;;;4980351;28;20414;-63
2022/11/15 12:27:36;;;;;;;7.53;3.50;;;12.30;99.90;;;;;;4983070;28;20506;-63
2022/11/15 12:30:13;;;;;;;6.88;3.30;;;12.10;99.90;;;;;;4976305;28;20046;-63
2022/11/15 12:32:48;;;;;;;9.77;3.47;;;12.10;99.90;;;;;;4975957;28;20537;-63
2022/11/15 12:35:38;;;;;;;4.72;3.17;;;12.10;99.90;;;;;;4978544;28;20576;-63
2022/11/15 12:38:08;;;;;;;7.22;3.63;;;12.00;99.90;;;;;;4978774;28;20046;-64
2022/11/15 12:40:58;;;;;;;7.43;2.92;;;12.10;99.90;;;;;;4986529;28;20042;-63
2022/11/15 12:43:40;;;;;;;5.53;3.00;;;12.00;99.90;;;;;;4981579;28;20505;-63
2022/11/15 12:46:11;;;;;;;8.07;2.85;;;11.90;99.90;;;;;;4978786;28;20042;-64
2022/11/15 12:48:37;;;;;;;6.95;3.03;;;12.00;99.90;;;;;;4974647;28;20043;-63
2022/11/15 12:51:03;;;;;;;;;;;12.00;99.90;;;;;;4979849;28;20453;-63
2022/11/15 12:53:33;;;;;;;6.30;2.63;;;12.00;99.90;;;;;;4977034;28;19922;-63
2022/11/15 12:56:17;;;;;;;6.63;3.25;;;12.00;99.90;;;;;;4979184;28;20054;-62
2022/11/15 12:58:46;;;;;;;7.53;3.67;;;12.00;99.90;;;;;;4975503;28;20490;-63
2022/11/15 13:01:37;;;;;;;5.57;3.22;;;11.90;99.90;;;;;;4985928;28;20042;-62
2022/11/15 13:04:21;;;;;;;4.47;3.28;;;11.80;99.90;;;;;;4980445;28;20513;-63
2022/11/15 13:06:52;;;;;;;5.78;3.13;;;11.70;99.90;;;;;;4984195;28;20080;-63
2022/11/15 13:09:33;;;;;;;6.85;2.78;;;11.60;99.90;;;;;;4979633;28;20042;-62
2022/11/15 13:12:04;;;;;;;5.85;2.75;;;11.60;99.90;;;;;;4984451;28;20042;-63
2022/11/15 13:14:52;;;;;;;6.28;2.50;;;11.60;99.90;;;;;;4977956;28;20703;-63
2022/11/15 13:17:37;;;;;;;6.68;3.03;;;11.60;99.90;;;;;;4976269;28;20142;-63
2022/11/15 13:20:17;;;;;;;5.13;2.83;;;11.60;99.90;;;;;;4975502;28;20054;-64
2022/11/15 13:23:04;;;;;;;5.93;2.72;;;11.50;99.90;;;;;;4985034;28;20042;-64
2022/11/15 13:25:48;;;;;;;6.05;2.75;;;;;;;;;;4981561;28;20438;-63
2022/11/15 13:28:14;;;;;;;4.05;2.40;;;;;;;;;;4995630;28;20538;-63
2022/11/15 13:30:40;;;;;;;;;;;;;;;;;;4983374;28;20054;-64
2022/11/15 13:33:22;;;;;;;7.20;2.60;;;;;;;;;;4972996;28;20009;-63
2022/11/15 13:35:53;;;;;;;6.00;3.10;;;;;;;;;;4983811;28;20053;-63
2022/11/15 13:38:26;;;;;;;7.80;3.13;;;;;;;;;;4968969;28;20035;-63
2022/11/15 13:40:53;;;;;;;4.82;1.98;;;;;;;;;;4983023;28;20494;-63
2022/11/15 13:43:27;;;;;;;5.45;2.60;;;;;;;;;;4974379;28;20117;-63
2022/11/15 13:46:05;;;;;;;3.92;2.30;;;;;;;;;;4985932;28;20077;-64
2022/11/15 13:48:33;;;;;;;4.32;2.00;;;;;;;;;;4973658;28;20074;-63